Bethel, ME

4:22 AM EST on February 13, 2016 (GMT -0500)
Albany Township | | Change Station
CLOSE
Current Station
Personal Weather Station
Location: Albany Township, ME
Elevation: 1037 ft
Nearby Weather Stations
Active Advisory: Wind Chill Warning

Elev 1037 ft 44.30 °N, 70.75 °W | Updated 45 days ago

Cloudy
Cloudy
6 °F
Feels Like -1 °F
N
4
Wind Variable Wind from North
Gusts mph

Today
High -- | Low -- °F
--% Chance of Precip.
Yesterday
High -- | Low -- °F
Precip. -- in
Pressure 29.76 in
Visibility 10.0 miles
Clouds Few 8000 ft
Windchill -1 °F
Dew Point 1 °F
Humidity 78%
Rainfall in
Snow Depth Not available.
6:46 AM 5:08 PM
Waxing Crescent, 29% visible
METAR KLEW 130915Z 00000KT 10SM FEW080 M18/M23 A2976 RMK AO1
Pressure 29.76 in
Visibility 10.0 miles
Clouds Few 8000 ft
Windchill -1 °F
Dew Point 1 °F
Humidity 78%
Rainfall in
Snow Depth Not available.
6:46 AM 5:08 PM
Waxing Crescent, 29% visible
METAR KLEW 130915Z 00000KT 10SM FEW080 M18/M23 A2976 RMK AO1

10-Day Weather Forecast

Almanac

Astronomy

Feb. 13, 2016 Rise Set
Actual Time
Civil Twilight
Nautical Twilight
Astronomical Twilight
Moon
Length of Visible Light
Length of Day
Tomorrow will be .
, % of the Moon is Illuminated

Today's Extremes

State Highs State Lows

Community

WunderPhotos

Upload Photos

1,892,536 photos uploaded!

WunderBlog® & News

Nearby

Air Quality

  Air Quality AQ Index Pollutant
Not available.

Snow Depth

Station Depth Elevation

Earthquake Activity

City Distance Mag. Time & Date
Minimum magnitude displayed is 2.5.

Coastal Water Temperatures

Place Temperature

Stations

Nearby Weather Stations

Station Location Temp. Windchill Dew Point Humidity Wind Precip. Elev Updated Type
                   

Watches & Warnings

Wind Chill Warning
Issued: 3:49 AM EST Feb. 13, 2016 – National Weather Service

... Wind chill warning remains in effect from midnight tonight to
10 am EST Sunday...

* hazard types... dangerous wind chill readings.

* Wind chill... as low as 37 below due to temperatures 1 below to
14 below zero... and winds northwest 10 to 20 mph with gusts up
to 30 mph.

* Timing... late Saturday night and Sunday morning.

* Impacts... frostbite and hypothermia if unprotected from the
cold.

* Winds... northwest 10 to 20 mph with gusts up to 30 mph.

* Temperatures... 1 below to 14 below zero.

Precautionary/preparedness actions...

A wind chill warning means the combination of very cold air and
strong winds will create dangerously low wind chill values. This
will result in frost bite and lead to hypothermia or death if
precautions are not taken.